Yankeetown, Indiana
Current Conditions -  °F | °C
As of 2:02 AM on Monday 26 Jan 2015 (Local Time) from KEVV Reporting Station
Overcast Overcast  
Wind Chill: 21°   Ceiling: 1600
Heat Index: 31°   Visibility: 10mi
Dew Point: 24°   Wind: 14mph
Humidity: 76%   Direction: 340°NNW
Pressure: 29.91"   Gusts: 25mph
Location:  37.9629°N, 87.3632°W
Report Text: KEVV 260802Z AUTO 34012G22KT 10SM OVC016 M01/M04 A2991 RMK AO2 T10061044
Loading
Personal Weather Stations






























Interactive Weather Map New forecast layout! Learn more

10-Day Weather Forecast

Advertisements
Track Severe Weather on mobile